createdAt,value
2022-08-01T00:01:43.574Z,98413.75
2022-08-01T00:04:14.083Z,98397.03
2022-08-01T00:06:49.410Z,98409.41
2022-08-01T00:09:28.363Z,98396.91
2022-08-01T00:12:01.842Z,98400.44
2022-08-01T00:14:32.916Z,98365.19
2022-08-01T00:17:09.449Z,98394.66
2022-08-01T00:19:44.598Z,98395.53
2022-08-01T00:22:22.264Z,98396.06
2022-08-01T00:24:52.384Z,98393.34
2022-08-01T00:27:21.810Z,98378.00
2022-08-01T00:30:11.290Z,98401.91
2022-08-01T00:32:47.478Z,98384.78
2022-08-01T00:35:24.328Z,98395.84
2022-08-01T00:38:01.851Z,98401.84
2022-08-01T00:40:38.016Z,98403.28
2022-08-01T00:43:13.979Z,98409.88
2022-08-01T00:45:53.757Z,98416.59
2022-08-01T00:48:23.577Z,98415.66
2022-08-01T00:50:59.738Z,98402.97
2022-08-01T00:53:50.781Z,98409.47
2022-08-01T00:56:28.679Z,98426.94
2022-08-01T00:59:00.412Z,98416.81
2022-08-01T01:01:39.217Z,98408.50
2022-08-01T01:04:19.245Z,98412.78
2022-08-01T01:06:56.591Z,98402.75
2022-08-01T01:09:54.860Z,98402.22
2022-08-01T01:12:38.941Z,98417.84
2022-08-01T01:15:35.475Z,98407.72
2022-08-01T01:18:35.066Z,98399.91
2022-08-01T01:21:31.894Z,98406.94
2022-08-01T01:24:56.119Z,98401.72
2022-08-01T01:27:55.997Z,98371.53
2022-08-01T01:30:32.723Z,98392.66
2022-08-01T01:33:14.116Z,98393.00
2022-08-01T01:36:01.767Z,98394.78
2022-08-01T01:38:40.920Z,98394.25
2022-08-01T01:41:13.163Z,98402.81
2022-08-01T01:43:47.537Z,98397.25
2022-08-01T01:46:21.448Z,98394.38
2022-08-01T01:48:57.856Z,98388.66
2022-08-01T01:51:28.420Z,98389.53
2022-08-01T01:54:07.120Z,98393.47
2022-08-01T01:56:52.488Z,98398.75
2022-08-01T01:59:28.832Z,98400.94
2022-08-01T02:02:07.272Z,98394.00
2022-08-01T02:04:44.344Z,98394.66
2022-08-01T02:07:21.058Z,98399.81
2022-08-01T02:09:55.976Z,98395.19
2022-08-01T02:12:28.956Z,98400.69
2022-08-01T02:15:11.548Z,98392.00
2022-08-01T02:17:51.900Z,98377.72
2022-08-01T02:20:26.418Z,98386.28
2022-08-01T02:23:07.011Z,98389.19
2022-08-01T02:26:09.353Z,98382.00
2022-08-01T02:28:58.075Z,98379.84
2022-08-01T02:31:36.397Z,98393.69
2022-08-01T02:34:11.532Z,98395.69
2022-08-01T02:36:42.790Z,98391.78
2022-08-01T02:39:15.715Z,98396.47
2022-08-01T02:41:48.997Z,98397.38
2022-08-01T02:44:42.973Z,98396.63
2022-08-01T02:47:19.974Z,98392.13
2022-08-01T02:49:53.678Z,98396.38
2022-08-01T02:52:28.836Z,98403.78
2022-08-01T02:55:10.665Z,98404.53
2022-08-01T02:58:00.856Z,98389.88
2022-08-01T03:00:43.958Z,98401.16
2022-08-01T03:03:16.211Z,98416.34
2022-08-01T03:05:53.009Z,98403.69
2022-08-01T03:08:24.157Z,98401.63
2022-08-01T03:11:01.867Z,98395.09
2022-08-01T03:13:37.554Z,98409.31
2022-08-01T03:16:15.501Z,98410.03
2022-08-01T03:18:53.797Z,98400.72
2022-08-01T03:21:28.585Z,98401.91
2022-08-01T03:24:07.341Z,98399.91
2022-08-01T03:26:42.570Z,98399.72
2022-08-01T03:29:26.131Z,98401.06
2022-08-01T03:31:56.607Z,98412.56
2022-08-01T03:34:25.964Z,98402.91
2022-08-01T03:37:17.609Z,98401.34
2022-08-01T03:40:00.964Z,98403.25
2022-08-01T03:42:46.978Z,98402.78
2022-08-01T03:45:28.707Z,98419.78
2022-08-01T03:48:12.243Z,98401.88
2022-08-01T03:50:46.376Z,98417.44
2022-08-01T03:53:20.012Z,98411.22
2022-08-01T03:55:57.341Z,98411.22
2022-08-01T03:58:39.157Z,98411.31
2022-08-01T04:01:16.106Z,98420.88
2022-08-01T04:03:46.152Z,98424.03
2022-08-01T04:06:16.933Z,98417.81
2022-08-01T04:09:02.507Z,98421.03
2022-08-01T04:11:42.186Z,98422.06
2022-08-01T04:14:22.370Z,98422.59
2022-08-01T04:17:00.245Z,98350.00
2022-08-01T04:19:36.354Z,98426.38
2022-08-01T04:22:09.693Z,98405.53
2022-08-01T04:24:56.556Z,98418.63
2022-08-01T04:27:50.031Z,98420.06
2022-08-01T04:30:33.611Z,98406.41
2022-08-01T04:33:06.294Z,98422.03
2022-08-01T04:36:01.833Z,98391.94
2022-08-01T04:38:42.189Z,98425.38
2022-08-01T04:41:17.942Z,98412.44
2022-08-01T04:43:57.602Z,98415.06
2022-08-01T04:46:31.921Z,98402.09
2022-08-01T04:49:08.963Z,98415.91
2022-08-01T04:51:45.795Z,98432.44
2022-08-01T04:54:17.139Z,98424.50
2022-08-01T04:56:51.567Z,98432.00
2022-08-01T04:59:40.298Z,98426.84
2022-08-01T05:02:23.514Z,98420.97
2022-08-01T05:05:00.550Z,98413.94
2022-08-01T05:07:45.049Z,98419.41
2022-08-01T05:10:23.684Z,98410.38
2022-08-01T05:13:01.339Z,98419.28
2022-08-01T05:15:42.985Z,98408.84
2022-08-01T05:18:14.156Z,98416.09
2022-08-01T05:20:50.023Z,98407.69
2022-08-01T05:23:36.614Z,98397.94
2022-08-01T05:26:18.343Z,98403.19
2022-08-01T05:28:52.077Z,98403.25
2022-08-01T05:31:33.509Z,98405.97
2022-08-01T05:34:06.330Z,98411.63
2022-08-01T05:36:47.102Z,98409.50
2022-08-01T05:39:24.533Z,98410.94
2022-08-01T05:42:03.910Z,98410.72
2022-08-01T05:44:38.878Z,98411.63
2022-08-01T05:47:21.308Z,98410.06
2022-08-01T05:49:53.946Z,98417.84
2022-08-01T05:52:27.239Z,98397.53
2022-08-01T05:55:04.808Z,98413.41
2022-08-01T05:57:34.480Z,98401.00
2022-08-01T06:00:06.044Z,98421.69
2022-08-01T06:02:52.773Z,98412.81
2022-08-01T06:05:23.088Z,98392.78
2022-08-01T06:07:57.677Z,98403.84
2022-08-01T06:10:27.473Z,98409.31
2022-08-01T06:13:01.619Z,98411.16
2022-08-01T06:15:33.676Z,98407.22
2022-08-01T06:18:09.635Z,98397.44
2022-08-01T06:20:43.585Z,98390.19
2022-08-01T06:23:31.897Z,98396.44
2022-08-01T06:26:07.274Z,98394.78
2022-08-01T06:28:42.282Z,98394.88
2022-08-01T06:31:22.630Z,98403.91
2022-08-01T06:34:04.778Z,98410.75
2022-08-01T06:36:40.303Z,98418.84
2022-08-01T06:39:17.929Z,98400.69
2022-08-01T06:41:49.914Z,98422.66
2022-08-01T06:44:31.934Z,98373.88
2022-08-01T06:47:07.045Z,98415.00
2022-08-01T06:49:45.414Z,98413.97
2022-08-01T06:52:18.253Z,98401.81
2022-08-01T06:54:55.013Z,98407.22
2022-08-01T06:57:30.315Z,98412.13
2022-08-01T07:00:03.042Z,98407.69
2022-08-01T07:02:32.732Z,98397.56
2022-08-01T07:05:07.710Z,98405.16
2022-08-01T07:07:47.447Z,98418.94
2022-08-01T07:13:06.811Z,98402.13
2022-08-01T07:15:42.866Z,98405.81
2022-08-01T07:18:15.216Z,98374.66
2022-08-01T07:20:51.210Z,98399.34
2022-08-01T07:23:33.782Z,98384.44
2022-08-01T07:26:18.400Z,98384.84
2022-08-01T07:29:03.464Z,98391.31
2022-08-01T07:31:36.604Z,98387.69
2022-08-01T07:34:13.447Z,98393.00
2022-08-01T07:36:59.011Z,98389.88
2022-08-01T07:39:31.628Z,98383.63
2022-08-01T07:42:12.511Z,98391.41
2022-08-01T07:44:48.231Z,98390.69
2022-08-01T07:47:24.169Z,98391.22
2022-08-01T07:49:53.933Z,98385.63
2022-08-01T07:52:36.030Z,98384.06
2022-08-01T07:55:09.939Z,98383.28
2022-08-01T07:57:46.849Z,98380.50
2022-08-01T08:00:20.799Z,98370.00
2022-08-01T08:03:09.673Z,98384.09
2022-08-01T08:05:51.609Z,98382.09
2022-08-01T08:08:36.040Z,98382.91
2022-08-01T08:11:10.514Z,98380.50
2022-08-01T08:13:41.592Z,98372.81
2022-08-01T08:16:14.147Z,98374.38
2022-08-01T08:18:49.426Z,98370.75
2022-08-01T08:24:19.180Z,98350.16
2022-08-01T08:26:59.871Z,98356.19
2022-08-01T08:29:35.940Z,98356.84
2022-08-01T08:32:10.551Z,98354.09
2022-08-01T08:34:42.568Z,98358.91
2022-08-01T08:37:19.075Z,98340.84
2022-08-01T08:40:00.706Z,98358.53
2022-08-01T08:42:46.764Z,98360.91
2022-08-01T08:45:44.577Z,98358.84
2022-08-01T08:48:31.530Z,98358.44
2022-08-01T08:51:12.961Z,98352.38
2022-08-01T08:53:54.530Z,98354.75
2022-08-01T08:56:35.711Z,98365.97
2022-08-01T08:59:15.318Z,98352.34
2022-08-01T09:01:49.772Z,98355.88
2022-08-01T09:04:36.713Z,98348.81
2022-08-01T09:07:15.005Z,98345.91
2022-08-01T09:09:46.359Z,98346.00
2022-08-01T09:12:19.441Z,98347.00
2022-08-01T09:14:51.202Z,98342.72
2022-08-01T09:17:24.202Z,98345.19
2022-08-01T09:19:57.581Z,98326.13
2022-08-01T09:22:29.861Z,98327.97
2022-08-01T09:25:14.872Z,98339.31
2022-08-01T09:27:46.390Z,98334.75
2022-08-01T09:30:26.240Z,98335.00
2022-08-01T09:33:17.760Z,98327.00
2022-08-01T09:36:01.193Z,98332.66
2022-08-01T09:38:47.805Z,98323.94
2022-08-01T09:41:27.197Z,98326.34
2022-08-01T09:44:15.772Z,98318.34
2022-08-01T09:47:00.712Z,98315.16
2022-08-01T09:49:51.070Z,98313.91
2022-08-01T09:52:25.916Z,98315.72
2022-08-01T09:55:12.461Z,98316.88
2022-08-01T09:57:44.237Z,98297.88
2022-08-01T10:00:44.167Z,98295.06
2022-08-01T10:03:31.851Z,98288.19
2022-08-01T10:06:01.156Z,98290.41
2022-08-01T10:08:52.540Z,98291.84
2022-08-01T10:11:24.015Z,98290.72
2022-08-01T10:14:18.735Z,98288.63
2022-08-01T10:16:53.457Z,98280.22
2022-08-01T10:19:41.189Z,98277.13
2022-08-01T10:22:18.113Z,98280.44
2022-08-01T10:24:48.664Z,98276.44
2022-08-01T10:27:24.373Z,98277.25
2022-08-01T10:30:19.787Z,98269.22
2022-08-01T10:33:01.042Z,98280.34
2022-08-01T10:35:46.575Z,98261.25
2022-08-01T10:38:22.082Z,98263.78
2022-08-01T10:41:06.329Z,98256.78
2022-08-01T10:43:48.605Z,98248.03
2022-08-01T10:46:29.683Z,98237.44
2022-08-01T10:49:12.241Z,98250.72
2022-08-01T10:54:52.436Z,98233.78
2022-08-01T10:57:32.547Z,98243.88
2022-08-01T11:00:18.817Z,98227.53
2022-08-01T11:03:08.764Z,98235.56
2022-08-01T11:06:07.489Z,98225.38
2022-08-01T11:08:47.559Z,98221.72
2022-08-01T11:11:16.819Z,98230.22
2022-08-01T11:14:25.989Z,98228.44
2022-08-01T11:17:09.842Z,98197.03
2022-08-01T11:20:18.240Z,98207.09
2022-08-01T11:23:16.940Z,98208.09
2022-08-01T11:26:05.865Z,98202.88
2022-08-01T11:28:59.449Z,98200.56
2022-08-01T11:31:44.536Z,98201.06
2022-08-01T11:34:28.427Z,98195.66
2022-08-01T11:37:30.555Z,98206.50
2022-08-01T11:40:31.087Z,98196.28
2022-08-01T11:43:30.919Z,98180.38
2022-08-01T11:46:04.805Z,98198.69
2022-08-01T11:48:50.021Z,98193.84
2022-08-01T11:51:32.516Z,98200.00
2022-08-01T11:54:08.522Z,98193.84
2022-08-01T11:56:46.573Z,98195.09
2022-08-01T11:59:25.844Z,98173.41
2022-08-01T12:02:11.574Z,98187.84
2022-08-01T12:05:15.923Z,98189.09
2022-08-01T12:07:56.162Z,98187.13
2022-08-01T12:10:49.679Z,98174.75
2022-08-01T12:13:27.807Z,98195.25
2022-08-01T12:16:05.806Z,98181.53
2022-08-01T12:18:47.369Z,98195.38
2022-08-01T12:21:16.405Z,98201.09
2022-08-01T12:26:46.645Z,98188.34
2022-08-01T12:29:53.247Z,98187.31
2022-08-01T12:32:41.020Z,98192.72
2022-08-01T12:35:21.499Z,98195.75
2022-08-01T12:37:53.574Z,98186.72
2022-08-01T12:40:47.285Z,98192.59
2022-08-01T12:43:29.260Z,98181.75
2022-08-01T12:46:20.261Z,98185.09
2022-08-01T12:49:01.468Z,98185.28
2022-08-01T12:51:33.056Z,98177.13
2022-08-01T12:54:12.603Z,98177.97
2022-08-01T12:56:53.074Z,98168.38
2022-08-01T12:59:37.822Z,98168.84
2022-08-01T13:02:17.003Z,98161.63
2022-08-01T13:04:53.559Z,98163.66
2022-08-01T13:07:23.437Z,98162.06
2022-08-01T13:09:54.344Z,98161.75
2022-08-01T13:12:27.941Z,98144.75
2022-08-01T13:15:01.605Z,98148.25
2022-08-01T13:17:44.233Z,98138.84
2022-08-01T13:20:37.964Z,98144.78
2022-08-01T13:24:02.106Z,98121.53
2022-08-01T13:26:15.356Z,98118.25
2022-08-01T13:28:52.895Z,98123.63
2022-08-01T13:31:22.693Z,98130.53
2022-08-01T13:33:59.930Z,98117.44
2022-08-01T13:36:48.764Z,98111.03
2022-08-01T13:39:35.458Z,98101.47
2022-08-01T13:42:09.279Z,98114.25
2022-08-01T13:44:46.013Z,98109.59
2022-08-01T13:47:18.422Z,98112.19
2022-08-01T13:50:02.492Z,98109.59
2022-08-01T13:52:33.907Z,98096.00
2022-08-01T13:55:11.077Z,98098.56
2022-08-01T13:57:42.256Z,98111.09
2022-08-01T14:00:39.343Z,98090.97
2022-08-01T14:03:14.118Z,98101.59
2022-08-01T14:05:45.873Z,98105.00
2022-08-01T14:08:16.484Z,98098.53
2022-08-01T14:10:46.763Z,98095.47
2022-08-01T14:13:29.670Z,98109.06
2022-08-01T14:16:06.850Z,98109.81
2022-08-01T14:18:38.135Z,98112.31
2022-08-01T14:21:11.043Z,98114.97
2022-08-01T14:23:41.740Z,98106.44
2022-08-01T14:26:23.145Z,98113.84
2022-08-01T14:28:57.878Z,98110.41
2022-08-01T14:31:34.532Z,98102.97
2022-08-01T14:34:10.727Z,98109.88
2022-08-01T14:36:45.338Z,98105.94
2022-08-01T14:39:24.999Z,98107.47
2022-08-01T14:41:55.629Z,98105.09
2022-08-01T14:44:28.054Z,98112.50
2022-08-01T14:47:21.389Z,98116.34
2022-08-01T14:52:38.796Z,98112.06
2022-08-01T14:55:13.767Z,98113.38
2022-08-01T14:57:51.263Z,98112.47
2022-08-01T15:00:33.852Z,98116.63
2022-08-01T15:03:07.187Z,98119.47
2022-08-01T15:05:39.496Z,98124.59
2022-08-01T15:08:11.612Z,98118.69
2022-08-01T15:10:56.399Z,98116.66
2022-08-01T15:13:31.190Z,98107.06
2022-08-01T15:16:05.572Z,98115.22
2022-08-01T15:18:40.190Z,98124.94
2022-08-01T15:21:14.550Z,98123.47
2022-08-01T15:23:59.462Z,98127.63
2022-08-01T15:26:32.358Z,98129.03
2022-08-01T15:29:06.675Z,98128.56
2022-08-01T15:31:40.393Z,98126.34
2022-08-01T15:34:13.898Z,98129.47
2022-08-01T15:36:54.839Z,98126.19
2022-08-01T15:39:28.619Z,98130.91
2022-08-01T15:42:16.794Z,98134.75
2022-08-01T15:44:56.216Z,98142.66
2022-08-01T15:47:29.933Z,98136.59
2022-08-01T15:50:05.922Z,98140.47
2022-08-01T15:52:38.547Z,98150.09
2022-08-01T15:55:18.666Z,98154.38
2022-08-01T15:57:54.790Z,98141.59
2022-08-01T16:00:25.400Z,98135.38
2022-08-01T16:03:08.389Z,98145.91
2022-08-01T16:05:44.152Z,98147.06
2022-08-01T16:08:17.527Z,98149.56
2022-08-01T16:10:50.479Z,98147.81
2022-08-01T16:13:21.864Z,98143.66
2022-08-01T16:15:53.779Z,98150.06
2022-08-01T16:18:41.965Z,98144.25
2022-08-01T16:21:15.660Z,98139.41
2022-08-01T16:23:49.357Z,98135.13
2022-08-01T16:26:39.245Z,98135.13
2022-08-01T16:29:07.057Z,98147.00
2022-08-01T16:31:53.355Z,98146.81
2022-08-01T16:34:37.724Z,98141.81
2022-08-01T16:37:18.225Z,98145.13
2022-08-01T16:40:00.486Z,98135.97
2022-08-01T16:42:35.087Z,98157.09
2022-08-01T16:45:08.828Z,98148.00
2022-08-01T16:47:45.974Z,98141.16
2022-08-01T16:50:28.695Z,98141.31
2022-08-01T16:53:02.730Z,98130.13
2022-08-01T16:55:49.729Z,98137.38
2022-08-01T16:58:27.574Z,98148.53
2022-08-01T17:01:58.290Z,98153.41
2022-08-01T17:03:53.724Z,98156.94
2022-08-01T17:06:26.665Z,98157.50
2022-08-01T17:09:01.052Z,98158.66
2022-08-01T17:11:35.448Z,98151.09
2022-08-01T17:14:09.304Z,98154.47
2022-08-01T17:16:50.916Z,98156.06
2022-08-01T17:19:32.604Z,98162.53
2022-08-01T17:22:05.377Z,98164.53
2022-08-01T17:24:43.272Z,98166.09
2022-08-01T17:27:15.726Z,98179.59
2022-08-01T17:29:53.004Z,98190.44
2022-08-01T17:32:31.888Z,98185.84
2022-08-01T17:35:14.000Z,98190.72
2022-08-01T17:37:49.838Z,98190.28
2022-08-01T17:40:39.572Z,98190.34
2022-08-01T17:43:15.559Z,98200.16
2022-08-01T17:45:51.451Z,98194.81
2022-08-01T17:48:29.816Z,98198.06
2022-08-01T17:51:00.697Z,98196.53
2022-08-01T17:53:33.312Z,98197.28
2022-08-01T17:56:20.040Z,98200.03
2022-08-01T17:58:53.578Z,98196.16
2022-08-01T18:01:27.058Z,98202.50
2022-08-01T18:04:01.579Z,98206.94
2022-08-01T18:06:37.423Z,98215.78
2022-08-01T18:09:15.235Z,98210.69
2022-08-01T18:11:48.930Z,98217.16
2022-08-01T18:14:40.074Z,98220.53
2022-08-01T18:17:15.170Z,98222.44
2022-08-01T18:19:47.073Z,98225.75
2022-08-01T18:22:33.894Z,98233.78
2022-08-01T18:25:12.716Z,98238.69
2022-08-01T18:28:29.991Z,98202.88
2022-08-01T18:30:44.127Z,98228.81
2022-08-01T18:33:14.710Z,98228.13
2022-08-01T18:35:52.409Z,98235.06
2022-08-01T18:38:28.436Z,98244.00
2022-08-01T18:41:08.420Z,98230.72
2022-08-01T18:43:45.829Z,98247.75
2022-08-01T18:46:27.670Z,98230.16
2022-08-01T18:49:09.411Z,98253.31
2022-08-01T18:51:47.757Z,98263.19
2022-08-01T18:54:19.604Z,98260.06
2022-08-01T18:56:52.287Z,98270.16
2022-08-01T18:59:24.806Z,98271.03
2022-08-01T19:01:58.431Z,98272.63
2022-08-01T19:04:33.577Z,98284.72
2022-08-01T19:07:39.342Z,98281.94
2022-08-01T19:10:16.664Z,98283.94
2022-08-01T19:12:48.809Z,98268.63
2022-08-01T19:15:34.608Z,98285.16
2022-08-01T19:18:15.872Z,98290.41
2022-08-01T19:20:48.826Z,98285.97
2022-08-01T19:23:39.483Z,98287.19
2022-08-01T19:26:18.240Z,98298.06
2022-08-01T19:28:55.745Z,98297.22
2022-08-01T19:31:29.845Z,98299.56
2022-08-01T19:34:05.239Z,98304.00
2022-08-01T19:36:41.167Z,98312.41
2022-08-01T19:39:19.232Z,98305.88
2022-08-01T19:41:52.978Z,98317.16
2022-08-01T19:44:24.652Z,98318.78
2022-08-01T19:46:54.771Z,98331.22
2022-08-01T19:49:33.763Z,98337.69
2022-08-01T19:52:07.489Z,98354.34
2022-08-01T19:54:39.306Z,98356.81
2022-08-01T19:57:14.383Z,98373.75
2022-08-01T19:59:56.889Z,98370.03
2022-08-01T20:02:38.121Z,98380.22
2022-08-01T20:05:17.457Z,98369.34
2022-08-01T20:07:53.292Z,98379.75
2022-08-01T20:10:22.196Z,98377.72
2022-08-01T20:13:02.456Z,98366.03
2022-08-01T20:15:42.810Z,98366.91
2022-08-01T20:18:13.739Z,98357.66
2022-08-01T20:20:52.417Z,98358.00
2022-08-01T20:23:27.971Z,98349.16
2022-08-01T20:26:03.718Z,98353.56
2022-08-01T20:28:38.652Z,98325.69
2022-08-01T20:31:10.825Z,98351.19
2022-08-01T20:33:45.642Z,98347.56
2022-08-01T20:36:25.044Z,98329.88
2022-08-01T20:39:03.339Z,98353.59
2022-08-01T20:44:27.332Z,98338.19
2022-08-01T20:46:55.989Z,98334.97
2022-08-01T20:49:27.816Z,98342.31
2022-08-01T20:52:00.040Z,98340.16
2022-08-01T20:54:43.116Z,98344.53
2022-08-01T20:57:39.552Z,98352.06
2022-08-01T21:00:16.875Z,98367.69
2022-08-01T21:03:12.484Z,98367.50
2022-08-01T21:05:55.695Z,98376.28
2022-08-01T21:08:49.935Z,98344.00
2022-08-01T21:11:46.465Z,98361.13
2022-08-01T21:14:25.751Z,98360.03
2022-08-01T21:17:05.168Z,98357.28
2022-08-01T21:19:36.161Z,98356.81
2022-08-01T21:22:29.482Z,98368.59
2022-08-01T21:25:16.721Z,98364.91
2022-08-01T21:27:50.692Z,98378.69
2022-08-01T21:30:24.719Z,98364.13
2022-08-01T21:33:03.906Z,98393.88
2022-08-01T21:35:46.016Z,98389.25
2022-08-01T21:38:25.132Z,98385.25
2022-08-01T21:40:58.185Z,98378.44
2022-08-01T21:43:28.883Z,98385.94
2022-08-01T21:46:06.241Z,98395.78
2022-08-01T21:48:43.237Z,98414.88
2022-08-01T21:51:52.037Z,98429.91
2022-08-01T21:55:10.973Z,98447.22
2022-08-01T21:58:16.563Z,98455.50
2022-08-01T22:01:12.274Z,98473.97
2022-08-01T22:03:56.872Z,98480.13
2022-08-01T22:06:37.928Z,98493.66
2022-08-01T22:09:12.214Z,98498.44
2022-08-01T22:11:58.894Z,98506.50
2022-08-01T22:14:34.349Z,98522.06
2022-08-01T22:17:05.212Z,98539.19
2022-08-01T22:19:45.387Z,98541.25
2022-08-01T22:22:50.159Z,98546.91
2022-08-01T22:25:19.607Z,98549.84
2022-08-01T22:28:06.222Z,98568.09
2022-08-01T22:30:45.238Z,98560.56
2022-08-01T22:33:18.884Z,98561.16
2022-08-01T22:36:03.213Z,98535.78
2022-08-01T22:38:41.324Z,98560.41
2022-08-01T22:41:23.840Z,98557.31
2022-08-01T22:44:07.975Z,98552.03
2022-08-01T22:47:06.502Z,98558.63
2022-08-01T22:50:02.736Z,98556.47
2022-08-01T22:52:45.698Z,98548.34
2022-08-01T22:55:24.065Z,98550.94
2022-08-01T22:58:06.483Z,98522.78
2022-08-01T23:00:41.375Z,98543.63
2022-08-01T23:03:22.040Z,98551.22
2022-08-01T23:06:07.922Z,98550.25
2022-08-01T23:08:38.074Z,98554.72
2022-08-01T23:11:25.371Z,98564.13
2022-08-01T23:14:09.046Z,98564.19
2022-08-01T23:16:38.352Z,98560.63
2022-08-01T23:19:18.199Z,98554.38
2022-08-01T23:22:03.962Z,98559.47
2022-08-01T23:24:42.694Z,98555.47
2022-08-01T23:27:54.229Z,98549.16
2022-08-01T23:30:32.028Z,98550.56
2022-08-01T23:33:04.002Z,98548.50
2022-08-01T23:35:43.597Z,98550.22
2022-08-01T23:38:21.403Z,98531.00
2022-08-01T23:41:00.140Z,98534.44
2022-08-01T23:43:34.663Z,98538.03
2022-08-01T23:46:11.264Z,98552.78
2022-08-01T23:48:42.630Z,98531.13
2022-08-01T23:51:24.193Z,98541.66
2022-08-01T23:53:56.385Z,98548.75
2022-08-01T23:56:33.575Z,98554.38
2022-08-01T23:59:10.006Z,98568.28
